sensor_id;sensor_type;location;lat;lon;timestamp;pressure;altitude;pressure_sealevel;temperature;humidity
56992;BME280;42885;49.754;18.636;2023-05-03T00:01:34;98935.83;;;14.80;100.00
56992;BME280;42885;49.754;18.636;2023-05-03T00:04:23;98939.33;;;14.94;100.00
56992;BME280;42885;49.754;18.636;2023-05-03T00:07:12;98939.61;;;15.09;100.00
56992;BME280;42885;49.754;18.636;2023-05-03T00:10:01;98941.24;;;15.18;100.00
56992;BME280;42885;49.754;18.636;2023-05-03T00:12:51;98935.70;;;15.15;100.00
56992;BME280;42885;49.754;18.636;2023-05-03T00:15:40;98936.11;;;15.09;100.00
56992;BME280;42885;49.754;18.636;2023-05-03T00:18:29;98927.74;;;15.09;100.00
56992;BME280;42885;49.754;18.636;2023-05-03T00:21:19;98937.70;;;15.11;100.00
56992;BME280;42885;49.754;18.636;2023-05-03T00:24:08;98932.60;;;15.16;100.00
56992;BME280;42885;49.754;18.636;2023-05-03T00:26:58;98929.41;;;15.36;100.00
56992;BME280;42885;49.754;18.636;2023-05-03T00:29:50;98929.28;;;15.19;100.00
56992;BME280;42885;49.754;18.636;2023-05-03T00:32:42;98927.52;;;15.12;100.00
56992;BME280;42885;49.754;18.636;2023-05-03T00:35:31;98927.79;;;15.02;100.00
56992;BME280;42885;49.754;18.636;2023-05-03T00:38:20;98918.30;;;14.86;100.00
56992;BME280;42885;49.754;18.636;2023-05-03T00:41:10;98919.06;;;14.81;100.00
56992;BME280;42885;49.754;18.636;2023-05-03T00:44:00;98922.14;;;14.75;100.00
56992;BME280;42885;49.754;18.636;2023-05-03T00:46:50;98920.16;;;14.92;100.00
56992;BME280;42885;49.754;18.636;2023-05-03T00:49:40;98915.66;;;14.86;100.00
56992;BME280;42885;49.754;18.636;2023-05-03T00:52:29;98922.02;;;14.90;100.00
56992;BME280;42885;49.754;18.636;2023-05-03T00:55:18;98915.34;;;14.91;100.00
56992;BME280;42885;49.754;18.636;2023-05-03T00:58:08;98919.59;;;14.73;100.00
56992;BME280;42885;49.754;18.636;2023-05-03T01:00:57;98915.47;;;14.69;100.00
56992;BME280;42885;49.754;18.636;2023-05-03T01:03:46;98910.39;;;14.86;100.00
56992;BME280;42885;49.754;18.636;2023-05-03T01:06:58;98917.25;;;14.69;100.00
56992;BME280;42885;49.754;18.636;2023-05-03T01:10:00;98915.70;;;14.79;100.00
56992;BME280;42885;49.754;18.636;2023-05-03T01:12:52;98914.56;;;14.83;100.00
56992;BME280;42885;49.754;18.636;2023-05-03T01:18:44;98914.99;;;14.50;100.00
56992;BME280;42885;49.754;18.636;2023-05-03T01:21:36;98918.19;;;14.75;100.00
56992;BME280;42885;49.754;18.636;2023-05-03T01:24:27;98916.83;;;14.82;100.00
56992;BME280;42885;49.754;18.636;2023-05-03T01:27:18;98918.23;;;14.81;100.00
56992;BME280;42885;49.754;18.636;2023-05-03T01:30:08;98914.02;;;15.04;100.00
56992;BME280;42885;49.754;18.636;2023-05-03T01:36:07;98910.25;;;14.95;100.00
56992;BME280;42885;49.754;18.636;2023-05-03T01:38:56;98909.25;;;14.91;100.00
56992;BME280;42885;49.754;18.636;2023-05-03T01:41:47;98905.16;;;15.05;100.00
56992;BME280;42885;49.754;18.636;2023-05-03T01:44:37;98903.48;;;14.91;100.00
56992;BME280;42885;49.754;18.636;2023-05-03T01:47:27;98908.66;;;14.93;100.00
56992;BME280;42885;49.754;18.636;2023-05-03T01:50:17;98906.02;;;14.93;100.00
56992;BME280;42885;49.754;18.636;2023-05-03T01:53:07;98911.12;;;14.89;100.00
56992;BME280;42885;49.754;18.636;2023-05-03T01:55:57;98909.98;;;14.72;100.00
56992;BME280;42885;49.754;18.636;2023-05-03T01:58:46;98908.66;;;14.72;100.00
56992;BME280;42885;49.754;18.636;2023-05-03T02:01:35;98915.19;;;14.67;100.00
56992;BME280;42885;49.754;18.636;2023-05-03T02:04:24;98907.16;;;14.68;100.00
56992;BME280;42885;49.754;18.636;2023-05-03T02:07:13;98906.66;;;14.63;100.00
56992;BME280;42885;49.754;18.636;2023-05-03T02:10:02;98910.02;;;14.65;100.00
56992;BME280;42885;49.754;18.636;2023-05-03T02:12:52;98910.84;;;14.73;100.00
56992;BME280;42885;49.754;18.636;2023-05-03T02:15:41;98904.84;;;14.84;100.00
56992;BME280;42885;49.754;18.636;2023-05-03T02:18:31;98904.12;;;14.95;100.00
56992;BME280;42885;49.754;18.636;2023-05-03T02:21:22;98902.16;;;15.04;100.00
56992;BME280;42885;49.754;18.636;2023-05-03T02:24:12;98897.38;;;15.17;100.00
56992;BME280;42885;49.754;18.636;2023-05-03T02:27:02;98897.73;;;15.18;100.00
56992;BME280;42885;49.754;18.636;2023-05-03T02:29:51;98901.11;;;15.20;100.00
56992;BME280;42885;49.754;18.636;2023-05-03T02:32:39;98904.59;;;15.20;100.00
56992;BME280;42885;49.754;18.636;2023-05-03T02:35:29;98901.47;;;15.21;100.00
56992;BME280;42885;49.754;18.636;2023-05-03T02:38:18;98907.92;;;15.17;100.00
56992;BME280;42885;49.754;18.636;2023-05-03T02:41:07;98910.97;;;15.10;100.00
56992;BME280;42885;49.754;18.636;2023-05-03T02:43:56;98908.48;;;14.89;100.00
56992;BME280;42885;49.754;18.636;2023-05-03T02:46:46;98909.48;;;14.80;100.00
56992;BME280;42885;49.754;18.636;2023-05-03T02:49:35;98913.66;;;14.70;100.00
56992;BME280;42885;49.754;18.636;2023-05-03T02:52:25;98914.56;;;14.83;100.00
56992;BME280;42885;49.754;18.636;2023-05-03T02:55:14;98918.30;;;14.99;100.00
56992;BME280;42885;49.754;18.636;2023-05-03T02:58:03;98919.24;;;14.85;100.00
56992;BME280;42885;49.754;18.636;2023-05-03T03:00:53;98921.55;;;14.77;100.00
56992;BME280;42885;49.754;18.636;2023-05-03T03:03:42;98922.05;;;14.69;100.00
56992;BME280;42885;49.754;18.636;2023-05-03T03:06:32;98925.09;;;14.83;100.00
56992;BME280;42885;49.754;18.636;2023-05-03T03:09:21;98928.42;;;14.72;100.00
56992;BME280;42885;49.754;18.636;2023-05-03T03:12:11;98924.17;;;14.57;100.00
56992;BME280;42885;49.754;18.636;2023-05-03T03:15:00;98925.55;;;14.63;100.00
56992;BME280;42885;49.754;18.636;2023-05-03T03:17:51;98929.29;;;14.53;100.00
56992;BME280;42885;49.754;18.636;2023-05-03T03:20:42;98924.85;;;14.53;100.00
56992;BME280;42885;49.754;18.636;2023-05-03T03:23:32;98936.70;;;14.53;100.00
56992;BME280;42885;49.754;18.636;2023-05-03T03:26:21;98931.19;;;14.64;100.00
56992;BME280;42885;49.754;18.636;2023-05-03T03:29:10;98932.47;;;14.71;100.00
56992;BME280;42885;49.754;18.636;2023-05-03T03:31:59;98932.69;;;14.88;100.00
56992;BME280;42885;49.754;18.636;2023-05-03T03:34:49;98932.55;;;14.77;100.00
56992;BME280;42885;49.754;18.636;2023-05-03T03:37:39;98934.44;;;14.54;100.00
56992;BME280;42885;49.754;18.636;2023-05-03T03:40:28;98928.71;;;14.55;100.00
56992;BME280;42885;49.754;18.636;2023-05-03T03:43:17;98936.10;;;14.83;100.00
56992;BME280;42885;49.754;18.636;2023-05-03T03:46:07;98934.79;;;14.96;100.00
56992;BME280;42885;49.754;18.636;2023-05-03T03:48:57;98940.28;;;14.93;100.00
56992;BME280;42885;49.754;18.636;2023-05-03T03:51:47;98944.33;;;14.91;100.00
56992;BME280;42885;49.754;18.636;2023-05-03T03:54:36;98945.73;;;14.90;100.00
56992;BME280;42885;49.754;18.636;2023-05-03T03:57:24;98945.81;;;14.82;100.00
56992;BME280;42885;49.754;18.636;2023-05-03T04:00:14;98946.73;;;14.81;100.00
56992;BME280;42885;49.754;18.636;2023-05-03T04:03:05;98947.92;;;14.90;100.00
56992;BME280;42885;49.754;18.636;2023-05-03T04:05:55;98951.86;;;14.77;100.00
56992;BME280;42885;49.754;18.636;2023-05-03T04:08:44;98952.98;;;14.73;100.00
56992;BME280;42885;49.754;18.636;2023-05-03T04:11:33;98958.72;;;14.80;100.00
56992;BME280;42885;49.754;18.636;2023-05-03T04:14:22;98957.45;;;14.85;100.00
56992;BME280;42885;49.754;18.636;2023-05-03T04:17:12;98958.73;;;14.93;100.00
56992;BME280;42885;49.754;18.636;2023-05-03T04:20:02;98956.04;;;14.87;100.00
56992;BME280;42885;49.754;18.636;2023-05-03T04:22:53;98957.00;;;14.99;100.00
56992;BME280;42885;49.754;18.636;2023-05-03T04:25:44;98961.28;;;15.07;100.00
56992;BME280;42885;49.754;18.636;2023-05-03T04:28:37;98967.38;;;15.21;100.00
56992;BME280;42885;49.754;18.636;2023-05-03T10:42:23;99186.11;;;15.30;100.00
56992;BME280;42885;49.754;18.636;2023-05-03T10:44:56;99181.97;;;15.46;100.00
56992;BME280;42885;49.754;18.636;2023-05-03T10:47:26;99181.64;;;15.37;100.00
56992;BME280;42885;49.754;18.636;2023-05-03T10:52:50;99177.63;;;15.52;100.00
56992;BME280;42885;49.754;18.636;2023-05-03T10:55:21;99178.57;;;15.51;100.00
56992;BME280;42885;49.754;18.636;2023-05-03T10:57:57;99177.95;;;15.60;100.00
56992;BME280;42885;49.754;18.636;2023-05-03T11:00:38;99176.63;;;15.60;100.00
56992;BME280;42885;49.754;18.636;2023-05-03T11:03:42;99173.41;;;15.62;100.00
56992;BME280;42885;49.754;18.636;2023-05-03T11:09:06;99175.38;;;15.66;100.00
56992;BME280;42885;49.754;18.636;2023-05-03T11:11:39;99172.80;;;15.85;100.00
56992;BME280;42885;49.754;18.636;2023-05-03T11:14:11;99166.84;;;15.88;100.00
56992;BME280;42885;49.754;18.636;2023-05-03T11:16:42;99175.12;;;15.89;100.00
56992;BME280;42885;49.754;18.636;2023-05-03T11:19:15;99181.93;;;15.73;100.00
56992;BME280;42885;49.754;18.636;2023-05-03T11:21:46;99177.52;;;15.87;100.00
56992;BME280;42885;49.754;18.636;2023-05-03T11:24:17;99174.19;;;15.77;100.00
56992;BME280;42885;49.754;18.636;2023-05-03T11:26:48;99165.31;;;16.12;100.00
56992;BME280;42885;49.754;18.636;2023-05-03T11:29:19;99168.51;;;16.09;100.00
56992;BME280;42885;49.754;18.636;2023-05-03T11:31:51;99170.47;;;16.13;100.00
56992;BME280;42885;49.754;18.636;2023-05-03T11:34:22;99161.59;;;16.14;100.00
56992;BME280;42885;49.754;18.636;2023-05-03T11:36:53;99169.08;;;16.33;100.00
56992;BME280;42885;49.754;18.636;2023-05-03T11:39:24;99172.16;;;16.40;100.00
56992;BME280;42885;49.754;18.636;2023-05-03T11:42:04;99166.23;;;16.36;100.00
56992;BME280;42885;49.754;18.636;2023-05-03T11:44:35;99170.00;;;16.01;100.00
56992;BME280;42885;49.754;18.636;2023-05-03T11:47:06;99178.06;;;15.92;100.00
56992;BME280;42885;49.754;18.636;2023-05-03T11:49:37;99171.00;;;15.92;100.00
56992;BME280;42885;49.754;18.636;2023-05-03T11:52:08;99168.33;;;15.79;100.00
56992;BME280;42885;49.754;18.636;2023-05-03T11:54:39;99172.33;;;15.72;100.00
56992;BME280;42885;49.754;18.636;2023-05-03T11:57:12;99170.28;;;15.83;100.00
56992;BME280;42885;49.754;18.636;2023-05-03T11:59:43;99164.68;;;15.95;100.00
56992;BME280;42885;49.754;18.636;2023-05-03T12:02:15;99162.33;;;15.90;100.00
56992;BME280;42885;49.754;18.636;2023-05-03T12:04:46;99163.09;;;15.92;100.00
56992;BME280;42885;49.754;18.636;2023-05-03T12:07:17;99158.86;;;16.03;100.00
56992;BME280;42885;49.754;18.636;2023-05-03T12:09:47;99157.38;;;16.24;100.00
56992;BME280;42885;49.754;18.636;2023-05-03T12:12:19;99156.05;;;16.24;100.00
56992;BME280;42885;49.754;18.636;2023-05-03T12:14:57;99160.06;;;16.30;100.00
56992;BME280;42885;49.754;18.636;2023-05-03T12:17:38;99154.51;;;16.28;100.00
56992;BME280;42885;49.754;18.636;2023-05-03T12:20:20;99158.62;;;16.63;100.00
56992;BME280;42885;49.754;18.636;2023-05-03T12:22:52;99158.06;;;16.53;98.96
56992;BME280;42885;49.754;18.636;2023-05-03T12:25:24;99153.19;;;16.28;100.00
56992;BME280;42885;49.754;18.636;2023-05-03T12:27:57;99158.83;;;16.29;99.59
56992;BME280;42885;49.754;18.636;2023-05-03T12:30:28;99154.55;;;16.65;100.00
56992;BME280;42885;49.754;18.636;2023-05-03T12:32:59;99153.41;;;16.56;100.00
56992;BME280;42885;49.754;18.636;2023-05-03T12:35:30;99155.75;;;16.48;95.70
56992;BME280;42885;49.754;18.636;2023-05-03T12:38:01;99152.59;;;16.30;99.48
56992;BME280;42885;49.754;18.636;2023-05-03T12:40:33;99149.11;;;16.61;100.00
56992;BME280;42885;49.754;18.636;2023-05-03T12:43:04;99152.64;;;16.48;100.00
56992;BME280;42885;49.754;18.636;2023-05-03T12:45:35;99147.66;;;16.12;99.94
56992;BME280;42885;49.754;18.636;2023-05-03T12:48:06;99149.98;;;16.04;100.00
56992;BME280;42885;49.754;18.636;2023-05-03T12:50:37;99145.60;;;16.10;96.42
56992;BME280;42885;49.754;18.636;2023-05-03T12:53:09;99145.27;;;16.28;98.37
56992;BME280;42885;49.754;18.636;2023-05-03T12:55:40;99142.66;;;16.33;100.00
56992;BME280;42885;49.754;18.636;2023-05-03T12:58:11;99142.88;;;15.99;100.00
56992;BME280;42885;49.754;18.636;2023-05-03T13:00:41;99141.76;;;15.75;100.00
56992;BME280;42885;49.754;18.636;2023-05-03T13:03:13;99142.48;;;15.98;99.75
56992;BME280;42885;49.754;18.636;2023-05-03T13:05:44;99142.89;;;15.78;100.00
56992;BME280;42885;49.754;18.636;2023-05-03T13:08:16;99138.68;;;16.15;99.48
56992;BME280;42885;49.754;18.636;2023-05-03T13:10:47;99139.91;;;16.16;100.00
56992;BME280;42885;49.754;18.636;2023-05-03T13:13:18;99141.95;;;16.18;100.00
56992;BME280;42885;49.754;18.636;2023-05-03T13:15:50;99141.95;;;16.18;100.00
56992;BME280;42885;49.754;18.636;2023-05-03T13:18:22;99139.78;;;16.05;100.00
56992;BME280;42885;49.754;18.636;2023-05-03T13:20:53;99134.05;;;16.05;100.00
56992;BME280;42885;49.754;18.636;2023-05-03T13:23:24;99135.23;;;16.33;100.00
56992;BME280;42885;49.754;18.636;2023-05-03T13:25:54;99133.83;;;15.95;100.00
56992;BME280;42885;49.754;18.636;2023-05-03T13:28:27;99126.97;;;16.19;100.00
56992;BME280;42885;49.754;18.636;2023-05-03T13:30:58;99135.48;;;16.22;100.00
56992;BME280;42885;49.754;18.636;2023-05-03T13:33:29;99132.80;;;16.17;100.00
56992;BME280;42885;49.754;18.636;2023-05-03T13:36:00;99128.89;;;16.22;100.00
56992;BME280;42885;49.754;18.636;2023-05-03T13:38:31;99123.26;;;16.08;100.00
56992;BME280;42885;49.754;18.636;2023-05-03T13:41:06;99124.84;;;16.11;100.00
56992;BME280;42885;49.754;18.636;2023-05-03T13:43:41;99122.84;;;16.15;100.00
56992;BME280;42885;49.754;18.636;2023-05-03T13:46:12;99118.72;;;15.98;100.00
56992;BME280;42885;49.754;18.636;2023-05-03T13:48:43;99118.32;;;16.22;100.00
56992;BME280;42885;49.754;18.636;2023-05-03T13:51:14;99118.72;;;16.42;99.61
56992;BME280;42885;49.754;18.636;2023-05-03T13:53:45;99114.53;;;16.27;100.00
56992;BME280;42885;49.754;18.636;2023-05-03T13:56:16;99109.02;;;15.98;100.00
56992;BME280;42885;49.754;18.636;2023-05-03T14:01:36;99104.81;;;16.14;100.00
56992;BME280;42885;49.754;18.636;2023-05-03T14:04:08;99102.48;;;16.22;100.00
56992;BME280;42885;49.754;18.636;2023-05-03T14:06:39;99107.77;;;16.35;100.00
56992;BME280;42885;49.754;18.636;2023-05-03T14:09:11;99103.17;;;16.32;100.00
56992;BME280;42885;49.754;18.636;2023-05-03T14:11:42;99101.33;;;16.45;100.00
56992;BME280;42885;49.754;18.636;2023-05-03T14:14:13;99104.59;;;16.49;100.00
56992;BME280;42885;49.754;18.636;2023-05-03T14:16:44;99106.50;;;16.47;100.00
56992;BME280;42885;49.754;18.636;2023-05-03T14:19:15;99105.34;;;16.19;100.00
56992;BME280;42885;49.754;18.636;2023-05-03T14:21:46;99099.31;;;16.30;100.00
56992;BME280;42885;49.754;18.636;2023-05-03T14:24:19;99106.50;;;16.28;100.00
56992;BME280;42885;49.754;18.636;2023-05-03T14:26:50;99105.58;;;16.35;100.00
56992;BME280;42885;49.754;18.636;2023-05-03T14:29:21;99099.98;;;16.08;100.00
56992;BME280;42885;49.754;18.636;2023-05-03T14:31:52;99107.97;;;16.01;100.00
56992;BME280;42885;49.754;18.636;2023-05-03T14:34:25;99111.72;;;16.22;100.00
56992;BME280;42885;49.754;18.636;2023-05-03T14:36:57;99108.73;;;16.08;100.00
56992;BME280;42885;49.754;18.636;2023-05-03T14:39:28;99114.65;;;16.12;100.00
56992;BME280;42885;49.754;18.636;2023-05-03T14:41:59;99114.20;;;16.00;100.00
56992;BME280;42885;49.754;18.636;2023-05-03T14:44:31;99117.00;;;16.22;100.00
56992;BME280;42885;49.754;18.636;2023-05-03T14:47:03;99110.66;;;15.93;100.00
56992;BME280;42885;49.754;18.636;2023-05-03T14:49:35;99116.30;;;15.94;100.00
56992;BME280;42885;49.754;18.636;2023-05-03T14:52:08;99118.72;;;15.98;100.00
56992;BME280;42885;49.754;18.636;2023-05-03T14:54:38;99116.73;;;15.81;100.00
56992;BME280;42885;49.754;18.636;2023-05-03T14:57:09;99116.91;;;15.85;100.00
56992;BME280;42885;49.754;18.636;2023-05-03T14:59:40;99129.55;;;15.54;100.00
56992;BME280;42885;49.754;18.636;2023-05-03T15:02:11;99120.33;;;15.80;100.00
56992;BME280;42885;49.754;18.636;2023-05-03T15:04:42;99122.50;;;15.67;100.00
56992;BME280;42885;49.754;18.636;2023-05-03T15:07:13;99126.44;;;15.41;100.00
56992;BME280;42885;49.754;18.636;2023-05-03T15:09:45;99132.87;;;15.50;100.00
56992;BME280;42885;49.754;18.636;2023-05-03T15:12:16;99129.88;;;15.62;100.00
56992;BME280;42885;49.754;18.636;2023-05-03T15:14:47;99130.17;;;15.45;100.00
56992;BME280;42885;49.754;18.636;2023-05-03T15:17:17;99128.86;;;15.45;100.00
56992;BME280;42885;49.754;18.636;2023-05-03T15:19:48;99127.41;;;15.53;100.00
56992;BME280;42885;49.754;18.636;2023-05-03T15:22:19;99126.48;;;15.47;100.00
56992;BME280;42885;49.754;18.636;2023-05-03T15:24:50;99126.48;;;15.47;100.00
56992;BME280;42885;49.754;18.636;2023-05-03T15:27:21;99129.84;;;15.36;100.00
56992;BME280;42885;49.754;18.636;2023-05-03T15:29:52;99132.17;;;15.41;100.00
56992;BME280;42885;49.754;18.636;2023-05-03T15:32:23;99130.08;;;15.46;100.00
56992;BME280;42885;49.754;18.636;2023-05-03T15:34:54;99122.78;;;15.37;100.00
56992;BME280;42885;49.754;18.636;2023-05-03T15:37:32;99124.13;;;15.50;100.00
56992;BME280;42885;49.754;18.636;2023-05-03T15:40:05;99123.21;;;15.44;100.00
56992;BME280;42885;49.754;18.636;2023-05-03T15:42:39;99120.27;;;15.28;100.00
56992;BME280;42885;49.754;18.636;2023-05-03T15:45:10;99120.61;;;15.36;100.00
56992;BME280;42885;49.754;18.636;2023-05-03T15:47:41;99126.10;;;15.33;100.00
56992;BME280;42885;49.754;18.636;2023-05-03T15:50:12;99125.92;;;15.29;100.00
56992;BME280;42885;49.754;18.636;2023-05-03T15:52:43;99122.14;;;15.33;100.00
56992;BME280;42885;49.754;18.636;2023-05-03T15:55:16;99122.57;;;15.40;100.00
56992;BME280;42885;49.754;18.636;2023-05-03T15:57:47;99120.61;;;15.36;100.00
56992;BME280;42885;49.754;18.636;2023-05-03T16:00:20;99121.13;;;15.28;100.00
56992;BME280;42885;49.754;18.636;2023-05-03T16:02:52;99116.25;;;15.43;100.00
56992;BME280;42885;49.754;18.636;2023-05-03T16:05:23;99119.05;;;15.26;100.00
56992;BME280;42885;49.754;18.636;2023-05-03T16:07:54;99120.64;;;15.29;100.00
56992;BME280;42885;49.754;18.636;2023-05-03T16:10:25;99117.95;;;15.23;100.00
56992;BME280;42885;49.754;18.636;2023-05-03T16:12:57;99110.92;;;15.37;100.00
56992;BME280;42885;49.754;18.636;2023-05-03T16:15:28;99113.12;;;15.43;100.00
56992;BME280;42885;49.754;18.636;2023-05-03T16:18:00;99107.17;;;15.60;100.00
56992;BME280;42885;49.754;18.636;2023-05-03T16:20:31;99112.69;;;15.69;100.00
56992;BME280;42885;49.754;18.636;2023-05-03T16:23:02;99105.81;;;15.80;100.00
56992;BME280;42885;49.754;18.636;2023-05-03T16:25:32;99109.77;;;15.80;100.00
56992;BME280;42885;49.754;18.636;2023-05-03T16:28:03;99107.04;;;15.81;100.00
56992;BME280;42885;49.754;18.636;2023-05-03T16:30:34;99110.28;;;15.33;100.00
56992;BME280;42885;49.754;18.636;2023-05-03T16:33:05;99106.97;;;15.17;100.00
56992;BME280;42885;49.754;18.636;2023-05-03T16:35:36;99106.36;;;15.26;100.00
56992;BME280;42885;49.754;18.636;2023-05-03T16:38:07;99114.60;;;15.14;100.00
56992;BME280;42885;49.754;18.636;2023-05-03T16:40:38;99110.56;;;15.16;100.00
56992;BME280;42885;49.754;18.636;2023-05-03T16:43:09;99112.58;;;15.25;100.00
56992;BME280;42885;49.754;18.636;2023-05-03T16:45:40;99112.19;;;15.11;100.00
56992;BME280;42885;49.754;18.636;2023-05-03T16:48:10;99108.29;;;15.17;100.00
56992;BME280;42885;49.754;18.636;2023-05-03T16:50:42;99111.30;;;15.18;100.00
56992;BME280;42885;49.754;18.636;2023-05-03T16:53:13;99106.33;;;15.13;100.00
56992;BME280;42885;49.754;18.636;2023-05-03T16:55:43;99108.23;;;15.11;100.00
56992;BME280;42885;49.754;18.636;2023-05-03T16:58:14;99108.39;;;14.88;100.00
56992;BME280;42885;49.754;18.636;2023-05-03T17:00:46;99112.19;;;14.83;100.00
56992;BME280;42885;49.754;18.636;2023-05-03T17:03:17;99107.48;;;15.02;100.00
56992;BME280;42885;49.754;18.636;2023-05-03T17:05:47;99103.23;;;15.06;100.00
56992;BME280;42885;49.754;18.636;2023-05-03T17:08:18;99109.55;;;15.11;100.00
56992;BME280;42885;49.754;18.636;2023-05-03T17:10:49;99103.44;;;15.03;100.00
56992;BME280;42885;49.754;18.636;2023-05-03T17:13:20;99110.22;;;14.80;100.00
56992;BME280;42885;49.754;18.636;2023-05-03T17:15:51;99109.85;;;14.79;100.00
56992;BME280;42885;49.754;18.636;2023-05-03T17:18:22;99114.61;;;14.86;100.00
56992;BME280;42885;49.754;18.636;2023-05-03T17:20:58;99115.05;;;14.93;100.00
56992;BME280;42885;49.754;18.636;2023-05-03T17:23:34;99121.12;;;14.81;100.00
56992;BME280;42885;49.754;18.636;2023-05-03T17:26:08;99121.04;;;14.82;100.00
56992;BME280;42885;49.754;18.636;2023-05-03T17:28:39;99128.53;;;14.89;100.00
56992;BME280;42885;49.754;18.636;2023-05-03T17:31:10;99125.84;;;15.03;100.00
56992;BME280;42885;49.754;18.636;2023-05-03T17:33:41;99127.16;;;15.03;100.00
56992;BME280;42885;49.754;18.636;2023-05-03T17:36:12;99124.80;;;15.06;100.00
56992;BME280;42885;49.754;18.636;2023-05-03T17:38:43;99125.80;;;14.90;100.00
56992;BME280;42885;49.754;18.636;2023-05-03T17:41:14;99125.17;;;15.07;100.00
56992;BME280;42885;49.754;18.636;2023-05-03T17:43:44;99130.54;;;15.05;100.00
56992;BME280;42885;49.754;18.636;2023-05-03T17:46:15;99132.65;;;15.00;100.00
56992;BME280;42885;49.754;18.636;2023-05-03T17:48:46;99133.63;;;14.92;100.00
56992;BME280;42885;49.754;18.636;2023-05-03T17:51:17;99131.83;;;15.12;100.00
56992;BME280;42885;49.754;18.636;2023-05-03T17:53:48;99131.79;;;14.99;100.00
56992;BME280;42885;49.754;18.636;2023-05-03T17:56:19;99129.22;;;15.05;100.00
56992;BME280;42885;49.754;18.636;2023-05-03T17:58:52;99128.98;;;15.03;100.00
56992;BME280;42885;49.754;18.636;2023-05-03T18:01:23;99138.91;;;15.12;100.00
56992;BME280;42885;49.754;18.636;2023-05-03T18:03:54;99136.95;;;15.08;100.00
56992;BME280;42885;49.754;18.636;2023-05-03T18:06:24;99134.05;;;15.26;100.00
56992;BME280;42885;49.754;18.636;2023-05-03T18:08:56;99136.86;;;15.23;100.00
56992;BME280;42885;49.754;18.636;2023-05-03T18:11:27;99143.47;;;15.03;100.00
56992;BME280;42885;49.754;18.636;2023-05-03T18:13:58;99138.27;;;15.08;100.00
56992;BME280;42885;49.754;18.636;2023-05-03T18:16:29;99139.95;;;15.09;100.00
56992;BME280;42885;49.754;18.636;2023-05-03T18:19:01;99139.98;;;15.02;100.00
56992;BME280;42885;49.754;18.636;2023-05-03T18:21:33;99135.01;;;14.97;100.00
56992;BME280;42885;49.754;18.636;2023-05-03T18:24:04;99132.84;;;14.90;100.00
56992;BME280;42885;49.754;18.636;2023-05-03T18:26:36;99137.38;;;14.88;100.00
56992;BME280;42885;49.754;18.636;2023-05-03T18:29:07;99135.27;;;15.07;100.00
56992;BME280;42885;49.754;18.636;2023-05-03T18:31:37;99136.09;;;15.08;100.00
56992;BME280;42885;49.754;18.636;2023-05-03T18:34:08;99136.73;;;15.11;100.00
56992;BME280;42885;49.754;18.636;2023-05-03T18:36:39;99139.26;;;14.93;100.00
56992;BME280;42885;49.754;18.636;2023-05-03T18:39:11;99140.19;;;14.99;100.00
56992;BME280;42885;49.754;18.636;2023-05-03T18:41:42;99145.20;;;14.89;100.00
56992;BME280;42885;49.754;18.636;2023-05-03T18:44:13;99142.77;;;14.86;100.00
56992;BME280;42885;49.754;18.636;2023-05-03T18:46:44;99138.31;;;14.94;100.00
56992;BME280;42885;49.754;18.636;2023-05-03T18:49:15;99141.17;;;14.83;100.00
56992;BME280;42885;49.754;18.636;2023-05-03T18:51:45;99140.02;;;14.88;100.00
56992;BME280;42885;49.754;18.636;2023-05-03T18:54:16;99140.61;;;14.78;100.00
56992;BME280;42885;49.754;18.636;2023-05-03T18:56:48;99138.54;;;14.83;100.00
56992;BME280;42885;49.754;18.636;2023-05-03T18:59:20;99142.14;;;14.75;100.00
56992;BME280;42885;49.754;18.636;2023-05-03T19:01:51;99140.80;;;14.82;100.00
56992;BME280;42885;49.754;18.636;2023-05-03T19:04:21;99142.44;;;14.49;100.00
56992;BME280;42885;49.754;18.636;2023-05-03T19:06:52;99140.47;;;14.38;100.00
56992;BME280;42885;49.754;18.636;2023-05-03T19:09:23;99140.95;;;14.30;100.00
56992;BME280;42885;49.754;18.636;2023-05-03T19:11:54;99144.33;;;14.25;100.00
56992;BME280;42885;49.754;18.636;2023-05-03T19:14:26;99135.03;;;14.26;100.00
56992;BME280;42885;49.754;18.636;2023-05-03T19:16:57;99132.77;;;14.42;100.00
56992;BME280;42885;49.754;18.636;2023-05-03T19:19:28;99136.88;;;14.46;100.00
56992;BME280;42885;49.754;18.636;2023-05-03T19:21:58;99138.39;;;14.50;100.00
56992;BME280;42885;49.754;18.636;2023-05-03T19:24:29;99139.14;;;14.45;100.00
56992;BME280;42885;49.754;18.636;2023-05-03T19:27:00;99140.74;;;14.48;100.00
56992;BME280;42885;49.754;18.636;2023-05-03T19:29:31;99140.84;;;14.39;100.00
56992;BME280;42885;49.754;18.636;2023-05-03T19:32:01;99136.06;;;14.31;100.00
56992;BME280;42885;49.754;18.636;2023-05-03T19:34:33;99140.17;;;14.42;100.00
56992;BME280;42885;49.754;18.636;2023-05-03T19:37:05;99138.41;;;14.43;100.00
56992;BME280;42885;49.754;18.636;2023-05-03T19:39:35;99138.77;;;14.44;100.00
56992;BME280;42885;49.754;18.636;2023-05-03T19:42:06;99139.35;;;14.35;100.00
56992;BME280;42885;49.754;18.636;2023-05-03T19:44:37;99135.48;;;14.18;100.00
56992;BME280;42885;49.754;18.636;2023-05-03T19:47:08;99133.88;;;14.38;100.00
56992;BME280;42885;49.754;18.636;2023-05-03T19:49:39;99134.26;;;14.31;100.00
56992;BME280;42885;49.754;18.636;2023-05-03T19:52:09;99139.27;;;14.36;100.00
56992;BME280;42885;49.754;18.636;2023-05-03T19:54:40;99141.78;;;14.38;100.00
56992;BME280;42885;49.754;18.636;2023-05-03T19:57:11;99137.30;;;14.33;100.00